createdAt,value
2023-09-10T00:00:01.366Z,1011.44
2023-09-10T00:01:01.389Z,1011.42
2023-09-10T00:02:01.318Z,1011.40
2023-09-10T00:03:01.313Z,1011.37
2023-09-10T00:04:01.295Z,1011.35
2023-09-10T00:05:01.294Z,1011.39
2023-09-10T00:06:01.266Z,1011.35
2023-09-10T00:07:01.255Z,1011.38
2023-09-10T00:08:01.254Z,1011.38
2023-09-10T00:09:01.255Z,1011.38
2023-09-10T00:10:01.206Z,1011.36
2023-09-10T00:11:01.224Z,1011.39
2023-09-10T00:12:01.192Z,1011.35
2023-09-10T00:13:01.161Z,1011.35
2023-09-10T00:14:01.241Z,1011.39
2023-09-10T00:15:01.152Z,1011.36
2023-09-10T00:16:01.227Z,1011.41
2023-09-10T00:17:01.158Z,1011.44
2023-09-10T00:18:01.267Z,1011.41
2023-09-10T00:19:01.093Z,1011.47
2023-09-10T00:20:01.222Z,1011.43
2023-09-10T00:21:01.087Z,1011.41
2023-09-10T00:22:01.055Z,1011.43
2023-09-10T00:23:01.158Z,1011.45
2023-09-10T00:24:01.044Z,1011.44
2023-09-10T00:25:01.024Z,1011.46
2023-09-10T00:26:01.103Z,1011.44
2023-09-10T00:27:01.009Z,1011.40
2023-09-10T00:28:01.008Z,1011.43
2023-09-10T00:29:01.042Z,1011.43
2023-09-10T00:30:00.976Z,1011.39
2023-09-10T00:31:01.066Z,1011.38
2023-09-10T00:32:01.028Z,1011.37
2023-09-10T00:33:00.978Z,1011.47
2023-09-10T00:34:00.945Z,1011.40
2023-09-10T00:35:00.950Z,1011.36
2023-09-10T00:36:00.933Z,1011.37
2023-09-10T00:37:00.909Z,1011.32
2023-09-10T00:38:02.147Z,1011.39
2023-09-10T00:39:00.874Z,1011.32
2023-09-10T00:40:00.885Z,1011.34
2023-09-10T00:41:00.885Z,1011.37
2023-09-10T00:42:00.841Z,1011.39
2023-09-10T00:43:00.841Z,1011.35
2023-09-10T00:44:00.861Z,1011.39
2023-09-10T00:45:00.838Z,1011.33
2023-09-10T00:46:00.801Z,1011.39
2023-09-10T00:47:00.831Z,1011.39
2023-09-10T00:48:00.846Z,1011.36
2023-09-10T00:49:00.763Z,1011.31
2023-09-10T00:50:00.790Z,1011.36
2023-09-10T00:51:00.770Z,1011.36
2023-09-10T00:52:00.751Z,1011.31
2023-09-10T00:53:00.773Z,1011.29
2023-09-10T00:54:00.712Z,1011.34
2023-09-10T00:55:00.703Z,1011.33
2023-09-10T00:56:00.729Z,1011.32
2023-09-10T00:57:00.695Z,1011.40
2023-09-10T00:58:00.668Z,1011.32
2023-09-10T00:59:00.689Z,1011.39
2023-09-10T01:00:00.655Z,1011.48
2023-09-10T01:01:00.659Z,1011.47
2023-09-10T01:02:00.693Z,1011.47
2023-09-10T01:03:00.719Z,1011.44
2023-09-10T01:04:00.594Z,1011.27
2023-09-10T01:05:00.654Z,1011.38
2023-09-10T01:06:00.579Z,1011.41
2023-09-10T01:07:00.564Z,1011.38
2023-09-10T01:08:00.634Z,1011.41
2023-09-10T01:09:00.565Z,1011.36
2023-09-10T01:10:00.527Z,1011.42
2023-09-10T01:11:00.580Z,1011.33
2023-09-10T01:12:00.505Z,1011.41
2023-09-10T01:13:00.511Z,1011.41
2023-09-10T01:14:00.530Z,1011.44
2023-09-10T01:15:00.473Z,1011.36
2023-09-10T01:16:00.495Z,1011.39
2023-09-10T01:17:00.544Z,1011.36
2023-09-10T01:18:00.556Z,1011.37
2023-09-10T01:19:00.427Z,1011.31
2023-09-10T01:20:00.554Z,1011.40
2023-09-10T01:21:00.459Z,1011.36
2023-09-10T01:22:00.397Z,1011.36
2023-09-10T01:23:00.480Z,1011.39
2023-09-10T01:24:00.420Z,1011.38
2023-09-10T01:25:00.387Z,1011.42
2023-09-10T01:26:00.420Z,1011.35
2023-09-10T01:27:00.346Z,1011.42
2023-09-10T01:28:00.340Z,1011.38
2023-09-10T01:29:00.338Z,1011.41
2023-09-10T01:30:00.326Z,1011.36
2023-09-10T01:31:00.360Z,1011.38
2023-09-10T01:32:00.411Z,1011.40
2023-09-10T01:33:00.296Z,1011.40
2023-09-10T01:34:00.281Z,1011.42
2023-09-10T01:35:00.345Z,1011.37
2023-09-10T01:36:00.236Z,1011.36
2023-09-10T01:37:00.227Z,1011.36
2023-09-10T01:38:00.242Z,1011.36
2023-09-10T01:39:00.229Z,1011.36
2023-09-10T01:40:00.279Z,1011.44
2023-09-10T01:41:00.241Z,1011.39
2023-09-10T01:42:00.197Z,1011.37
2023-09-10T01:43:00.168Z,1011.38
2023-09-10T01:44:00.216Z,1011.34
2023-09-10T01:45:00.137Z,1011.37
2023-09-10T01:46:00.145Z,1011.34
2023-09-10T01:47:00.153Z,1011.30
2023-09-10T01:48:00.182Z,1011.41
2023-09-10T01:49:00.136Z,1011.39
2023-09-10T01:50:00.216Z,1011.44
2023-09-10T01:51:00.075Z,1011.42
2023-09-10T01:52:00.069Z,1011.38
2023-09-10T01:53:00.214Z,1011.41
2023-09-10T01:54:00.045Z,1011.42
2023-09-10T01:55:00.042Z,1011.40
2023-09-10T01:56:00.094Z,1011.40
2023-09-10T01:57:00.026Z,1011.39
2023-09-10T01:58:00.024Z,1011.38
2023-09-10T01:59:00.015Z,1011.46
2023-09-10T01:59:59.995Z,1011.41
2023-09-10T02:00:59.966Z,1011.40
2023-09-10T02:01:59.997Z,1011.42
2023-09-10T02:03:00.062Z,1011.44
2023-09-10T02:04:00.024Z,1011.42
2023-09-10T02:05:00.000Z,1011.42
2023-09-10T02:05:59.923Z,1011.41
2023-09-10T02:06:59.897Z,1011.44
2023-09-10T02:07:59.947Z,1011.40
2023-09-10T02:08:59.891Z,1011.41
2023-09-10T02:09:59.887Z,1011.39
2023-09-10T02:10:59.991Z,1011.41
2023-09-10T02:11:59.858Z,1011.44
2023-09-10T02:12:59.822Z,1011.41
2023-09-10T02:13:59.840Z,1011.47
2023-09-10T02:14:59.796Z,1011.41
2023-09-10T02:15:59.832Z,1011.41
2023-09-10T02:16:59.836Z,1011.42
2023-09-10T02:17:59.833Z,1011.44
2023-09-10T02:18:59.757Z,1011.46
2023-09-10T02:19:59.807Z,1011.48
2023-09-10T02:20:59.738Z,1011.44
2023-09-10T02:21:59.733Z,1011.43
2023-09-10T02:22:59.769Z,1011.47
2023-09-10T02:23:59.716Z,1011.42
2023-09-10T02:24:59.684Z,1011.48
2023-09-10T02:25:59.701Z,1011.48
2023-09-10T02:26:59.711Z,1011.49
2023-09-10T02:27:59.692Z,1011.52
2023-09-10T02:28:59.683Z,1011.49
2023-09-10T02:29:59.640Z,1011.47
2023-09-10T02:30:59.628Z,1011.46
2023-09-10T02:31:59.673Z,1011.45
2023-09-10T02:32:59.617Z,1011.43
2023-09-10T02:33:59.611Z,1011.42
2023-09-10T02:34:59.621Z,1011.47
2023-09-10T02:35:59.570Z,1011.48
2023-09-10T02:36:59.547Z,1011.46
2023-09-10T02:37:59.580Z,1011.49
2023-09-10T02:38:59.546Z,1011.44
2023-09-10T02:39:59.530Z,1011.49
2023-09-10T02:40:59.550Z,1011.41
2023-09-10T02:41:59.500Z,1011.44
2023-09-10T02:42:59.487Z,1011.53
2023-09-10T02:43:59.548Z,1011.56
2023-09-10T02:44:59.481Z,1011.50
2023-09-10T02:45:59.558Z,1011.55
2023-09-10T02:46:59.480Z,1011.53
2023-09-10T02:47:59.478Z,1011.53
2023-09-10T02:48:59.417Z,1011.53
2023-09-10T02:49:59.462Z,1011.59
2023-09-10T02:50:59.396Z,1011.56
2023-09-10T02:51:59.409Z,1011.53
2023-09-10T02:52:59.409Z,1011.59
2023-09-10T02:53:59.373Z,1011.57
2023-09-10T02:54:59.351Z,1011.52
2023-09-10T02:55:59.437Z,1011.57
2023-09-10T02:56:59.332Z,1011.61
2023-09-10T02:57:59.322Z,1011.62
2023-09-10T02:58:59.338Z,1011.62
2023-09-10T02:59:59.335Z,1011.58
2023-09-10T03:00:59.329Z,1011.62
2023-09-10T03:01:59.281Z,1011.62
2023-09-10T03:02:59.329Z,1011.64
2023-09-10T03:03:59.365Z,1011.65
2023-09-10T03:04:59.266Z,1011.61
2023-09-10T03:05:59.244Z,1011.68
2023-09-10T03:06:59.212Z,1011.69
2023-09-10T03:07:59.293Z,1011.66
2023-09-10T03:08:59.190Z,1011.70
2023-09-10T03:09:59.179Z,1011.64
2023-09-10T03:10:59.204Z,1011.65
2023-09-10T03:11:59.159Z,1011.64
2023-09-10T03:12:59.177Z,1011.68
2023-09-10T03:13:59.146Z,1011.61
2023-09-10T03:14:59.127Z,1011.60
2023-09-10T03:15:59.169Z,1011.63
2023-09-10T03:16:59.148Z,1011.63
2023-09-10T03:17:59.144Z,1011.63
2023-09-10T03:18:59.087Z,1011.68
2023-09-10T03:19:59.125Z,1011.69
2023-09-10T03:20:59.093Z,1011.64
2023-09-10T03:21:59.050Z,1011.66
2023-09-10T03:22:59.066Z,1011.70
2023-09-10T03:23:59.060Z,1011.67
2023-09-10T03:24:59.015Z,1011.64
2023-09-10T03:25:59.039Z,1011.64
2023-09-10T03:26:59.000Z,1011.66
2023-09-10T03:27:59.021Z,1011.63
2023-09-10T03:28:59.008Z,1011.56
2023-09-10T03:29:58.963Z,1011.59
2023-09-10T03:30:58.963Z,1011.64
2023-09-10T03:31:58.971Z,1011.59
2023-09-10T03:32:59.026Z,1011.63
2023-09-10T03:33:58.936Z,1011.58
2023-09-10T03:34:58.943Z,1011.60
2023-09-10T03:35:59.037Z,1011.60
2023-09-10T03:36:58.878Z,1011.53
2023-09-10T03:37:58.919Z,1011.57
2023-09-10T03:38:58.884Z,1011.56
2023-09-10T03:39:58.847Z,1011.61
2023-09-10T03:40:58.839Z,1011.56
2023-09-10T03:41:58.890Z,1011.61
2023-09-10T03:42:58.818Z,1011.58
2023-09-10T03:43:58.873Z,1011.53
2023-09-10T03:44:58.797Z,1011.57
2023-09-10T03:45:58.785Z,1011.53
2023-09-10T03:46:58.867Z,1011.52
2023-09-10T03:47:58.785Z,1011.55
2023-09-10T03:48:58.792Z,1011.54
2023-09-10T03:49:58.769Z,1011.52
2023-09-10T03:50:58.721Z,1011.54
2023-09-10T03:51:58.726Z,1011.55
2023-09-10T03:52:58.719Z,1011.56
2023-09-10T03:53:58.697Z,1011.53
2023-09-10T03:54:58.705Z,1011.54
2023-09-10T03:55:58.700Z,1011.50
2023-09-10T03:56:58.662Z,1011.53
2023-09-10T03:57:58.663Z,1011.54
2023-09-10T03:58:58.684Z,1011.50
2023-09-10T03:59:58.640Z,1011.57
2023-09-10T04:00:58.677Z,1011.50
2023-09-10T04:01:58.656Z,1011.54
2023-09-10T04:02:58.646Z,1011.51
2023-09-10T04:03:58.679Z,1011.56
2023-09-10T04:04:58.660Z,1011.49
2023-09-10T04:05:58.562Z,1011.51
2023-09-10T04:06:58.567Z,1011.50
2023-09-10T04:07:58.588Z,1011.47
2023-09-10T04:08:58.528Z,1011.48
2023-09-10T04:09:58.522Z,1011.50
2023-09-10T04:10:58.564Z,1011.45
2023-09-10T04:11:58.501Z,1011.44
2023-09-10T04:12:58.491Z,1011.50
2023-09-10T04:13:58.499Z,1011.50
2023-09-10T04:14:58.456Z,1011.51
2023-09-10T04:15:58.445Z,1011.45
2023-09-10T04:16:58.528Z,1011.46
2023-09-10T04:17:58.515Z,1011.42
2023-09-10T04:18:58.421Z,1011.46
2023-09-10T04:19:58.463Z,1011.47
2023-09-10T04:20:58.388Z,1011.43
2023-09-10T04:21:58.400Z,1011.51
2023-09-10T04:22:58.425Z,1011.47
2023-09-10T04:23:58.372Z,1011.46
2023-09-10T04:24:58.351Z,1011.49
2023-09-10T04:25:58.409Z,1011.46
2023-09-10T04:26:58.353Z,1011.51
2023-09-10T04:27:58.330Z,1011.47
2023-09-10T04:28:58.356Z,1011.53
2023-09-10T04:29:58.288Z,1011.50
2023-09-10T04:30:58.301Z,1011.54
2023-09-10T04:31:58.320Z,1011.53
2023-09-10T04:32:58.302Z,1011.57
2023-09-10T04:33:58.254Z,1011.59
2023-09-10T04:34:58.365Z,1011.58
2023-09-10T04:35:58.398Z,1011.57
2023-09-10T04:36:58.229Z,1011.53
2023-09-10T04:37:58.234Z,1011.54
2023-09-10T04:38:58.191Z,1011.60
2023-09-10T04:39:58.180Z,1011.59
2023-09-10T04:40:58.192Z,1011.58
2023-09-10T04:41:58.163Z,1011.52
2023-09-10T04:42:58.157Z,1011.51
2023-09-10T04:43:58.181Z,1011.53
2023-09-10T04:44:58.123Z,1011.56
2023-09-10T04:45:58.138Z,1011.52
2023-09-10T04:46:58.141Z,1011.55
2023-09-10T04:47:58.215Z,1011.52
2023-09-10T04:48:58.085Z,1011.50
2023-09-10T04:49:58.128Z,1011.60
2023-09-10T04:50:58.051Z,1011.52
2023-09-10T04:51:58.081Z,1011.54
2023-09-10T04:52:58.040Z,1011.49
2023-09-10T04:53:58.025Z,1011.50
2023-09-10T04:54:58.003Z,1011.50
2023-09-10T04:55:58.101Z,1011.47
2023-09-10T04:57:00.352Z,1011.55
2023-09-10T04:57:57.969Z,1011.50
2023-09-10T04:58:57.990Z,1011.55
2023-09-10T04:59:57.972Z,1011.61
2023-09-10T05:00:57.938Z,1011.55
2023-09-10T05:01:58.001Z,1011.52
2023-09-10T05:02:58.083Z,1011.56
2023-09-10T05:03:57.980Z,1011.55
2023-09-10T05:04:57.909Z,1011.52
2023-09-10T05:05:57.894Z,1011.50
2023-09-10T05:06:57.869Z,1011.55
2023-09-10T05:07:57.919Z,1011.49
2023-09-10T05:08:57.843Z,1011.51
2023-09-10T05:09:57.847Z,1011.57
2023-09-10T05:10:57.867Z,1011.60
2023-09-10T05:11:57.822Z,1011.55
2023-09-10T05:12:57.798Z,1011.58
2023-09-10T05:13:58.666Z,1011.60
2023-09-10T05:14:57.799Z,1011.59
2023-09-10T05:15:57.944Z,1011.57
2023-09-10T05:16:57.876Z,1011.53
2023-09-10T05:17:57.797Z,1011.54
2023-09-10T05:18:57.739Z,1011.54
2023-09-10T05:19:57.789Z,1011.60
2023-09-10T05:20:57.721Z,1011.58
2023-09-10T05:21:57.701Z,1011.57
2023-09-10T05:22:57.740Z,1011.51
2023-09-10T05:23:57.699Z,1011.58
2023-09-10T05:24:57.673Z,1011.55
2023-09-10T05:25:57.697Z,1011.51
2023-09-10T05:26:57.648Z,1011.52
2023-09-10T05:27:57.630Z,1011.61
2023-09-10T05:28:57.641Z,1011.56
2023-09-10T05:29:57.614Z,1011.59
2023-09-10T05:30:57.634Z,1011.53
2023-09-10T05:31:57.739Z,1011.55
2023-09-10T05:32:57.667Z,1011.57
2023-09-10T05:33:57.582Z,1011.58
2023-09-10T05:34:57.607Z,1011.61
2023-09-10T05:35:57.554Z,1011.63
2023-09-10T05:36:57.546Z,1011.65
2023-09-10T05:37:57.540Z,1011.66
2023-09-10T05:38:57.517Z,1011.61
2023-09-10T05:39:57.525Z,1011.62
2023-09-10T05:40:57.545Z,1011.67
2023-09-10T05:41:57.498Z,1011.59
2023-09-10T05:42:57.466Z,1011.59
2023-09-10T05:43:57.477Z,1011.61
2023-09-10T05:44:57.440Z,1011.58
2023-09-10T05:45:57.503Z,1011.63
2023-09-10T05:46:57.469Z,1011.65
2023-09-10T05:47:57.463Z,1011.68
2023-09-10T05:48:57.401Z,1011.64
2023-09-10T05:49:57.443Z,1011.63
2023-09-10T05:50:57.392Z,1011.62
2023-09-10T05:51:57.375Z,1011.65
2023-09-10T05:52:57.665Z,1011.72
2023-09-10T05:53:57.357Z,1011.76
2023-09-10T05:54:57.333Z,1011.70
2023-09-10T05:55:57.391Z,1011.75
2023-09-10T05:56:57.313Z,1011.72
2023-09-10T05:57:57.314Z,1011.73
2023-09-10T05:58:57.433Z,1011.78
2023-09-10T05:59:57.278Z,1011.80
2023-09-10T06:00:57.274Z,1011.76
2023-09-10T06:01:57.302Z,1011.75
2023-09-10T06:02:57.303Z,1011.79
2023-09-10T06:03:57.369Z,1011.75
2023-09-10T06:04:57.456Z,1011.78
2023-09-10T06:05:59.515Z,1011.82
2023-09-10T06:06:57.203Z,1011.79
2023-09-10T06:07:57.258Z,1011.83
2023-09-10T06:08:57.226Z,1011.84
2023-09-10T06:09:57.164Z,1011.82
2023-09-10T06:10:57.167Z,1011.82
2023-09-10T06:11:57.172Z,1011.83
2023-09-10T06:12:57.134Z,1011.89
2023-09-10T06:13:57.161Z,1011.82
2023-09-10T06:14:57.106Z,1011.87
2023-09-10T06:15:57.138Z,1011.83
2023-09-10T06:16:57.109Z,1011.83
2023-09-10T06:17:57.097Z,1011.84
2023-09-10T06:18:57.084Z,1011.85
2023-09-10T06:19:58.726Z,1011.83
2023-09-10T06:20:57.071Z,1011.85
2023-09-10T06:21:57.030Z,1011.85
2023-09-10T06:22:57.138Z,1011.98
2023-09-10T06:23:57.015Z,1011.93
2023-09-10T06:24:56.999Z,1011.86
2023-09-10T06:25:57.060Z,1011.86
2023-09-10T06:26:57.887Z,1011.96
2023-09-10T06:27:56.993Z,1011.89
2023-09-10T06:28:56.976Z,1011.97
2023-09-10T06:29:57.359Z,1011.97
2023-09-10T06:30:56.945Z,1011.98
2023-09-10T06:31:56.992Z,1011.92
2023-09-10T06:32:56.982Z,1011.94
2023-09-10T06:33:56.902Z,1011.94
2023-09-10T06:34:56.930Z,1011.94
2023-09-10T06:35:56.890Z,1011.94
2023-09-10T06:36:56.865Z,1012.03
2023-09-10T06:37:56.880Z,1011.99
2023-09-10T06:38:56.853Z,1011.97
2023-09-10T06:39:56.839Z,1012.03
2023-09-10T06:40:56.869Z,1012.06
2023-09-10T06:41:56.811Z,1012.06
2023-09-10T06:42:56.813Z,1012.07
2023-09-10T06:43:56.845Z,1012.13
2023-09-10T06:44:56.784Z,1012.08
2023-09-10T06:45:56.822Z,1012.10
2023-09-10T06:46:56.755Z,1012.12
2023-09-10T06:47:56.827Z,1012.15
2023-09-10T06:48:56.735Z,1012.18
2023-09-10T06:49:56.748Z,1012.13
2023-09-10T06:50:56.729Z,1012.11
2023-09-10T06:51:56.715Z,1012.10
2023-09-10T06:52:56.720Z,1012.06
2023-09-10T06:53:56.700Z,1012.05
2023-09-10T06:54:58.109Z,1012.11
2023-09-10T06:55:56.706Z,1012.09
2023-09-10T06:56:56.649Z,1012.13
2023-09-10T06:57:56.670Z,1012.09
2023-09-10T06:58:56.653Z,1012.15
2023-09-10T06:59:56.639Z,1012.23
2023-09-10T07:00:56.649Z,1012.23
2023-09-10T07:01:56.646Z,1012.18
2023-09-10T07:02:56.619Z,1012.26
2023-09-10T07:03:56.580Z,1012.14
2023-09-10T07:04:56.712Z,1012.18
2023-09-10T07:05:56.673Z,1012.20
2023-09-10T07:06:56.541Z,1012.16
2023-09-10T07:07:56.553Z,1012.24
2023-09-10T07:08:56.535Z,1012.20
2023-09-10T07:09:56.516Z,1012.10
2023-09-10T07:10:56.519Z,1012.17
2023-09-10T07:11:56.495Z,1012.21
2023-09-10T07:12:56.491Z,1012.25
2023-09-10T07:13:56.520Z,1012.21
2023-09-10T07:14:56.446Z,1012.26
2023-09-10T07:15:56.488Z,1012.24
2023-09-10T07:16:56.442Z,1012.21
2023-09-10T07:17:56.484Z,1012.25
2023-09-10T07:18:56.431Z,1012.26
2023-09-10T07:19:56.434Z,1012.20
2023-09-10T07:20:56.390Z,1012.25
2023-09-10T07:21:56.379Z,1012.18
2023-09-10T07:22:56.437Z,1012.22
2023-09-10T07:23:56.378Z,1012.25
2023-09-10T07:24:56.358Z,1012.20
2023-09-10T07:25:56.402Z,1012.16
2023-09-10T07:26:56.320Z,1012.23
2023-09-10T07:27:56.305Z,1012.09
2023-09-10T07:28:56.331Z,1012.03
2023-09-10T07:29:56.295Z,1012.03
2023-09-10T07:30:56.288Z,1012.12
2023-09-10T07:31:56.338Z,1012.08
2023-09-10T07:32:56.298Z,1012.10
2023-09-10T07:33:56.260Z,1012.11
2023-09-10T07:34:56.264Z,1012.08
2023-09-10T07:35:56.223Z,1012.12
2023-09-10T07:36:56.241Z,1012.18
2023-09-10T07:37:56.277Z,1012.12
2023-09-10T07:38:56.227Z,1012.14
2023-09-10T07:39:56.193Z,1012.15
2023-09-10T07:40:56.208Z,1012.15
2023-09-10T07:41:56.181Z,1012.14
2023-09-10T07:42:56.154Z,1012.12
2023-09-10T07:43:56.171Z,1012.19
2023-09-10T07:44:56.150Z,1012.17
2023-09-10T07:45:56.176Z,1012.18
2023-09-10T07:46:56.141Z,1012.15
2023-09-10T07:47:56.203Z,1012.17
2023-09-10T07:48:56.097Z,1012.18
2023-09-10T07:49:56.107Z,1012.16
2023-09-10T07:50:56.074Z,1012.17
2023-09-10T07:51:56.053Z,1012.20
2023-09-10T07:52:56.112Z,1012.27
2023-09-10T07:53:56.052Z,1012.20
2023-09-10T07:54:56.019Z,1012.27
2023-09-10T07:55:56.055Z,1012.27
2023-09-10T07:56:56.009Z,1012.31
2023-09-10T07:57:56.011Z,1012.28
2023-09-10T07:58:56.036Z,1012.32
2023-09-10T07:59:55.972Z,1012.28
2023-09-10T08:00:56.039Z,1012.30
2023-09-10T08:01:55.991Z,1012.27
2023-09-10T08:02:55.959Z,1012.36
2023-09-10T08:03:56.029Z,1012.32
2023-09-10T08:04:55.952Z,1012.39
2023-09-10T08:05:55.907Z,1012.30
2023-09-10T08:06:55.900Z,1012.31
2023-09-10T08:07:55.882Z,1012.32
2023-09-10T08:08:55.885Z,1012.32
2023-09-10T08:09:55.867Z,1012.34
2023-09-10T08:10:55.882Z,1012.33
2023-09-10T08:11:55.833Z,1012.34
2023-09-10T08:12:55.826Z,1012.38
2023-09-10T08:13:55.836Z,1012.40
2023-09-10T08:14:55.820Z,1012.38
2023-09-10T08:15:55.817Z,1012.39
2023-09-10T08:16:55.879Z,1012.42
2023-09-10T08:17:55.858Z,1012.43
2023-09-10T08:18:55.768Z,1012.44
2023-09-10T08:19:55.850Z,1012.42
2023-09-10T08:20:55.738Z,1012.45
2023-09-10T08:21:55.732Z,1012.38
2023-09-10T08:22:55.814Z,1012.40
2023-09-10T08:23:55.742Z,1012.44
2023-09-10T08:24:55.727Z,1012.44
2023-09-10T08:25:55.712Z,1012.41
2023-09-10T08:26:55.717Z,1012.43
2023-09-10T08:27:55.677Z,1012.44
2023-09-10T08:28:55.665Z,1012.41
2023-09-10T08:29:55.658Z,1012.37
2023-09-10T08:30:55.700Z,1012.44
2023-09-10T08:31:55.646Z,1012.40
2023-09-10T08:32:55.647Z,1012.39
2023-09-10T08:33:55.600Z,1012.44
2023-09-10T08:34:55.630Z,1012.45
2023-09-10T08:35:55.608Z,1012.40
2023-09-10T08:36:55.569Z,1012.45
2023-09-10T08:37:55.640Z,1012.48
2023-09-10T08:38:55.553Z,1012.44
2023-09-10T08:39:55.542Z,1012.42
2023-09-10T08:40:55.597Z,1012.42
2023-09-10T08:41:55.607Z,1012.38
2023-09-10T08:42:55.534Z,1012.39
2023-09-10T08:43:55.532Z,1012.37
2023-09-10T08:44:55.497Z,1012.32
2023-09-10T08:45:55.491Z,1012.26
2023-09-10T08:46:55.604Z,1012.26
2023-09-10T08:47:55.476Z,1012.27
2023-09-10T08:48:55.438Z,1012.29
2023-09-10T08:49:55.451Z,1012.26
2023-09-10T08:50:55.429Z,1012.27
2023-09-10T08:51:55.439Z,1012.28
2023-09-10T08:52:55.448Z,1012.30
2023-09-10T08:53:55.375Z,1012.26
2023-09-10T08:54:55.367Z,1012.29
2023-09-10T08:55:55.445Z,1012.24
2023-09-10T08:56:55.363Z,1012.32
2023-09-10T08:57:55.352Z,1012.25
2023-09-10T08:58:55.390Z,1012.32
2023-09-10T08:59:55.324Z,1012.36
2023-09-10T09:00:55.323Z,1012.31
2023-09-10T09:01:55.346Z,1012.35
2023-09-10T09:02:55.467Z,1012.36
2023-09-10T09:03:55.312Z,1012.33
2023-09-10T09:04:55.297Z,1012.31
2023-09-10T09:05:55.254Z,1012.33
2023-09-10T09:06:55.324Z,1012.29
2023-09-10T09:07:55.291Z,1012.24
2023-09-10T09:08:57.819Z,1012.29
2023-09-10T09:09:55.203Z,1012.25
2023-09-10T09:10:55.241Z,1012.26
2023-09-10T09:11:55.195Z,1012.25
2023-09-10T09:12:55.207Z,1012.23
2023-09-10T09:13:55.190Z,1012.20
2023-09-10T09:14:55.156Z,1012.23
2023-09-10T09:15:55.161Z,1012.30
2023-09-10T09:16:55.203Z,1012.18
2023-09-10T09:17:55.560Z,1012.24
2023-09-10T09:18:55.116Z,1012.23
2023-09-10T09:19:55.118Z,1012.29
2023-09-10T09:20:55.089Z,1012.26
2023-09-10T09:21:55.070Z,1012.27
2023-09-10T09:22:55.154Z,1012.22
2023-09-10T09:23:55.092Z,1012.25
2023-09-10T09:24:55.045Z,1012.28
2023-09-10T09:25:55.054Z,1012.26
2023-09-10T09:26:55.019Z,1012.24
2023-09-10T09:27:55.004Z,1012.14
2023-09-10T09:28:55.051Z,1012.20
2023-09-10T09:29:54.996Z,1012.19
2023-09-10T09:30:54.994Z,1012.21
2023-09-10T09:31:55.004Z,1012.14
2023-09-10T09:32:54.990Z,1012.17
2023-09-10T09:33:54.958Z,1012.14
2023-09-10T09:34:54.964Z,1012.15
2023-09-10T09:35:54.923Z,1012.16
2023-09-10T09:36:54.936Z,1012.14
2023-09-10T09:37:54.916Z,1012.14
2023-09-10T09:38:54.908Z,1012.08
2023-09-10T09:39:54.905Z,1012.20
2023-09-10T09:40:54.892Z,1012.15
2023-09-10T09:41:54.851Z,1012.18
2023-09-10T09:43:02.537Z,1012.14
2023-09-10T09:43:55.917Z,1012.13
2023-09-10T09:44:54.824Z,1012.12
2023-09-10T09:45:54.819Z,1012.14
2023-09-10T09:46:54.824Z,1012.09
2023-09-10T09:47:54.811Z,1012.16
2023-09-10T09:48:54.770Z,1012.13
2023-09-10T09:49:54.836Z,1012.17
2023-09-10T09:50:54.750Z,1012.15
2023-09-10T09:51:54.737Z,1012.14
2023-09-10T09:52:54.769Z,1012.16
2023-09-10T09:53:54.958Z,1012.10
2023-09-10T09:54:54.730Z,1012.13
2023-09-10T09:55:54.827Z,1012.10
2023-09-10T09:56:54.686Z,1012.14
2023-09-10T09:57:54.677Z,1012.14
2023-09-10T09:58:54.703Z,1012.05
2023-09-10T09:59:54.664Z,1012.02
2023-09-10T10:00:54.660Z,1012.01
2023-09-10T10:01:54.696Z,1011.97
2023-09-10T10:02:54.693Z,1012.00
2023-09-10T10:03:54.639Z,1011.96
2023-09-10T10:04:54.625Z,1012.01
2023-09-10T10:05:54.590Z,1012.01
2023-09-10T10:06:54.570Z,1012.02
2023-09-10T10:07:54.594Z,1011.99
2023-09-10T10:08:54.551Z,1011.96
2023-09-10T10:09:54.581Z,1011.94
2023-09-10T10:10:54.591Z,1012.00
2023-09-10T10:11:54.539Z,1011.95
2023-09-10T10:12:54.519Z,1011.93
2023-09-10T10:13:54.559Z,1011.95
2023-09-10T10:14:54.491Z,1011.90
2023-09-10T10:15:54.598Z,1011.92
2023-09-10T10:16:54.571Z,1011.89
2023-09-10T10:17:54.588Z,1011.93
2023-09-10T10:18:54.441Z,1011.88
2023-09-10T10:19:54.462Z,1011.83
2023-09-10T10:20:54.422Z,1011.88
2023-09-10T10:21:54.407Z,1011.97
2023-09-10T10:22:54.424Z,1011.91
2023-09-10T10:23:54.402Z,1011.89
2023-09-10T10:24:54.395Z,1011.84
2023-09-10T10:25:54.901Z,1011.84
2023-09-10T10:26:54.368Z,1011.86
2023-09-10T10:27:54.370Z,1011.84
2023-09-10T10:28:54.537Z,1011.82
2023-09-10T10:29:54.322Z,1011.89
2023-09-10T10:30:54.348Z,1011.86
2023-09-10T10:31:54.384Z,1011.90
2023-09-10T10:32:54.416Z,1011.86
2023-09-10T10:33:54.304Z,1011.83
2023-09-10T10:34:54.293Z,1011.83
2023-09-10T10:35:54.285Z,1011.83
2023-09-10T10:36:54.249Z,1011.85
2023-09-10T10:37:54.261Z,1011.81
2023-09-10T10:38:54.244Z,1011.79
2023-09-10T10:39:54.220Z,1011.81
2023-09-10T10:40:54.239Z,1011.80
2023-09-10T10:41:54.203Z,1011.72
2023-09-10T10:42:54.186Z,1011.74
2023-09-10T10:43:54.317Z,1011.74
2023-09-10T10:44:54.158Z,1011.74
2023-09-10T10:45:54.204Z,1011.77
2023-09-10T10:46:54.206Z,1011.76
2023-09-10T10:47:54.251Z,1011.79
2023-09-10T10:48:54.113Z,1011.83
2023-09-10T10:49:54.175Z,1011.75
2023-09-10T10:50:54.161Z,1011.78
2023-09-10T10:51:57.090Z,1011.80
2023-09-10T10:52:54.120Z,1011.72
2023-09-10T10:53:54.064Z,1011.76
2023-09-10T10:54:54.045Z,1011.70
2023-09-10T10:55:54.070Z,1011.71
2023-09-10T10:56:54.031Z,1011.73
2023-09-10T10:57:54.032Z,1011.72
2023-09-10T10:58:54.023Z,1011.73
2023-09-10T10:59:54.019Z,1011.70
2023-09-10T11:00:54.097Z,1011.73
2023-09-10T11:01:54.007Z,1011.73
2023-09-10T11:02:54.033Z,1011.63
2023-09-10T11:03:53.959Z,1011.64
2023-09-10T11:04:54.040Z,1011.66
2023-09-10T11:05:54.187Z,1011.59
2023-09-10T11:06:53.913Z,1011.58
2023-09-10T11:07:53.943Z,1011.62
2023-09-10T11:08:53.899Z,1011.62
2023-09-10T11:09:53.905Z,1011.48
2023-09-10T11:10:53.900Z,1011.50
2023-09-10T11:11:53.880Z,1011.51
2023-09-10T11:12:53.855Z,1011.52
2023-09-10T11:13:53.859Z,1011.51
2023-09-10T11:14:53.825Z,1011.43
2023-09-10T11:15:53.859Z,1011.48
2023-09-10T11:16:53.877Z,1011.41
2023-09-10T11:17:53.826Z,1011.47
2023-09-10T11:18:53.789Z,1011.45
2023-09-10T11:19:53.808Z,1011.45
2023-09-10T11:20:53.757Z,1011.44
2023-09-10T11:21:53.771Z,1011.41
2023-09-10T11:22:53.750Z,1011.46
2023-09-10T11:23:53.729Z,1011.41
2023-09-10T11:24:53.715Z,1011.40
2023-09-10T11:25:53.720Z,1011.48
2023-09-10T11:26:56.168Z,1011.47
2023-09-10T11:27:53.691Z,1011.46
2023-09-10T11:28:53.722Z,1011.44
2023-09-10T11:29:53.661Z,1011.48
2023-09-10T11:30:53.657Z,1011.44
2023-09-10T11:31:53.787Z,1011.38
2023-09-10T11:32:54.111Z,1011.47
2023-09-10T11:33:53.635Z,1011.38
2023-09-10T11:34:53.649Z,1011.45
2023-09-10T11:35:53.605Z,1011.37
2023-09-10T11:36:53.596Z,1011.35
2023-09-10T11:37:53.600Z,1011.38
2023-09-10T11:38:53.587Z,1011.44
2023-09-10T11:39:53.584Z,1011.34
2023-09-10T11:40:53.653Z,1011.36
2023-09-10T11:41:53.560Z,1011.41
2023-09-10T11:42:53.539Z,1011.37
2023-09-10T11:43:53.536Z,1011.33
2023-09-10T11:44:53.524Z,1011.34
2023-09-10T11:45:53.499Z,1011.39
2023-09-10T11:46:53.546Z,1011.34
2023-09-10T11:47:53.574Z,1011.38
2023-09-10T11:48:53.454Z,1011.33
2023-09-10T11:49:53.485Z,1011.37
2023-09-10T11:50:53.463Z,1011.31
2023-09-10T11:51:53.426Z,1011.35
2023-09-10T11:52:53.477Z,1011.35
2023-09-10T11:53:53.407Z,1011.41
2023-09-10T11:54:53.408Z,1011.37
2023-09-10T11:55:53.453Z,1011.38
2023-09-10T11:56:53.384Z,1011.31
2023-09-10T11:57:53.367Z,1011.36
2023-09-10T11:58:53.405Z,1011.35
2023-09-10T11:59:53.337Z,1011.35
2023-09-10T12:00:53.387Z,1011.29
2023-09-10T12:01:53.340Z,1011.29
2023-09-10T12:02:53.363Z,1011.27
2023-09-10T12:03:53.348Z,1011.28
2023-09-10T12:04:53.325Z,1011.23